createdAt,value
2022-07-26T00:02:35.000Z,13.98
2022-07-26T00:07:34.000Z,14.31
2022-07-26T00:12:35.000Z,13.66
2022-07-26T00:17:34.000Z,12.75
2022-07-26T00:22:34.000Z,13.71
2022-07-26T00:27:35.000Z,13.71
2022-07-26T00:32:35.000Z,14.16
2022-07-26T00:37:34.000Z,14.79
2022-07-26T00:42:34.000Z,15.36
2022-07-26T00:47:34.000Z,14.23
2022-07-26T00:52:35.000Z,14.36
2022-07-26T00:57:34.000Z,15.11
2022-07-26T01:02:35.000Z,15.68
2022-07-26T01:07:34.000Z,17.24
2022-07-26T01:12:34.000Z,17.24
2022-07-26T01:17:34.000Z,16.92
2022-07-26T01:22:34.000Z,14.78
2022-07-26T01:27:35.000Z,14.72
2022-07-26T01:32:34.000Z,15.26
2022-07-26T01:42:34.000Z,14.11
2022-07-26T01:47:35.000Z,14.11
2022-07-26T01:52:35.000Z,14.62
2022-07-26T01:57:35.000Z,14.9
2022-07-26T02:02:34.000Z,15.53
2022-07-26T02:07:36.000Z,15.35
2022-07-26T02:12:34.000Z,14.82
2022-07-26T02:17:35.000Z,14.58
2022-07-26T02:22:36.000Z,14.58
2022-07-26T02:27:35.000Z,14.82
2022-07-26T02:32:34.000Z,13.99
2022-07-26T02:37:34.000Z,15.43
2022-07-26T02:42:35.000Z,16.14
2022-07-26T02:47:35.000Z,16.24
2022-07-26T02:52:35.000Z,16.74
2022-07-26T02:57:35.000Z,15.91
2022-07-26T03:02:34.000Z,16.13
2022-07-26T03:07:35.000Z,16.73
2022-07-26T03:12:35.000Z,16.73
2022-07-26T03:17:34.000Z,15.58
2022-07-26T03:22:35.000Z,16.68
2022-07-26T03:27:35.000Z,17.43
2022-07-26T03:32:34.000Z,19.74
2022-07-26T03:37:35.000Z,18.72
2022-07-26T03:42:35.000Z,17.49
2022-07-26T03:47:35.000Z,17.29
2022-07-26T03:52:35.000Z,17.54
2022-07-26T03:57:38.000Z,17.29
2022-07-26T04:02:35.000Z,17.29
2022-07-26T04:07:37.000Z,18.66
2022-07-26T04:12:35.000Z,18.36
2022-07-26T04:17:35.000Z,18.5
2022-07-26T04:22:34.000Z,17.69
2022-07-26T04:27:35.000Z,16.64
2022-07-26T04:32:34.000Z,16.32
2022-07-26T04:37:35.000Z,16.88
2022-07-26T04:42:35.000Z,16.88
2022-07-26T04:47:35.000Z,15.73
2022-07-26T04:52:35.000Z,15.63
2022-07-26T04:57:35.000Z,15.38
2022-07-26T05:02:35.000Z,15.77
2022-07-26T05:07:35.000Z,16.03
2022-07-26T05:12:35.000Z,16.56
2022-07-26T05:17:36.000Z,16.06
2022-07-26T05:22:35.000Z,15.83
2022-07-26T05:27:35.000Z,15.83
2022-07-26T05:32:34.000Z,16.03
2022-07-26T05:37:35.000Z,15.23
2022-07-26T05:42:35.000Z,15.34
2022-07-26T05:47:34.000Z,15.51
2022-07-26T05:52:35.000Z,15.14
2022-07-26T05:57:35.000Z,15.94
2022-07-26T06:02:35.000Z,15.98
2022-07-26T06:07:35.000Z,15.57
2022-07-26T06:12:35.000Z,15.57
2022-07-26T06:17:35.000Z,15.28
2022-07-26T06:27:34.000Z,15.58
2022-07-26T06:37:35.000Z,15.99
2022-07-26T06:42:34.000Z,15.99
2022-07-26T06:47:35.000Z,14.1
2022-07-26T06:52:35.000Z,14.9
2022-07-26T06:57:35.000Z,17.86
2022-07-26T07:02:35.000Z,14.6
2022-07-26T07:07:38.000Z,15.17
2022-07-26T07:12:34.000Z,15.36
2022-07-26T07:17:34.000Z,15.36
2022-07-26T07:22:35.000Z,14.62
2022-07-26T07:27:37.000Z,15.26
2022-07-26T07:32:36.000Z,15.4
2022-07-26T07:37:35.000Z,15.11
2022-07-26T07:42:34.000Z,17.33
2022-07-26T07:47:35.000Z,20.53
2022-07-26T07:52:35.000Z,16.36
2022-07-26T07:57:35.000Z,16.36
2022-07-26T08:02:34.000Z,15.69
2022-07-26T08:07:43.000Z,14.38
2022-07-26T08:12:35.000Z,16.58
2022-07-26T08:17:37.000Z,16.2
2022-07-26T08:22:34.000Z,18.2
2022-07-26T08:27:34.000Z,16.42
2022-07-26T08:32:35.000Z,16.42
2022-07-26T08:37:35.000Z,16.3
2022-07-26T08:42:34.000Z,18.1
2022-07-26T08:47:50.000Z,16.42
2022-07-26T08:52:34.000Z,16.84
2022-07-26T08:57:34.000Z,19.47
2022-07-26T09:02:35.000Z,17.82
2022-07-26T09:07:34.000Z,17.91
2022-07-26T09:22:34.000Z,17.55
2022-07-26T09:27:38.000Z,18.58
2022-07-26T09:32:35.000Z,21.66
2022-07-26T09:37:35.000Z,30.11
2022-07-26T09:42:39.000Z,16.63
2022-07-26T09:47:35.000Z,17.73
2022-07-26T09:52:35.000Z,17.66
2022-07-26T09:57:35.000Z,17.66
2022-07-26T10:02:35.000Z,17.66
2022-07-26T10:07:34.000Z,17.89
2022-07-26T10:12:40.000Z,19.35
2022-07-26T10:17:41.000Z,20.5
2022-07-26T10:22:34.000Z,21.16
2022-07-26T10:27:37.000Z,18.01
2022-07-26T10:32:35.000Z,18.01
2022-07-26T10:37:35.000Z,18.5
2022-07-26T10:42:35.000Z,18.45
2022-07-26T10:47:34.000Z,18.34
2022-07-26T10:52:35.000Z,18.49
2022-07-26T10:57:35.000Z,22.12
2022-07-26T11:02:35.000Z,26.14
2022-07-26T11:07:35.000Z,21.46
2022-07-26T11:12:35.000Z,23.06
2022-07-26T11:17:34.000Z,23.06
2022-07-26T11:22:35.000Z,19.58
2022-07-26T11:27:35.000Z,18.43
2022-07-26T11:32:35.000Z,18.82
2022-07-26T11:37:36.000Z,18.6
2022-07-26T11:42:35.000Z,20.28
2022-07-26T11:47:36.000Z,24.34
2022-07-26T11:52:35.000Z,21.54
2022-07-26T11:57:34.000Z,21.82
2022-07-26T12:12:35.000Z,19.36
2022-07-26T12:17:35.000Z,20
2022-07-26T12:22:34.000Z,19.57
2022-07-26T12:27:34.000Z,22.77
2022-07-26T12:32:34.000Z,22.8
2022-07-26T12:37:49.000Z,19.26
2022-07-26T12:52:34.000Z,22.58
2022-07-26T12:57:35.000Z,18.49
2022-07-26T13:02:35.000Z,19.03
2022-07-26T13:07:35.000Z,19.7
2022-07-26T13:12:35.000Z,19.29
2022-07-26T13:17:35.000Z,19.29
2022-07-26T13:22:35.000Z,20.54
2022-07-26T13:27:45.000Z,21.8
2022-07-26T13:32:34.000Z,21.42
2022-07-26T13:37:34.000Z,21.25
2022-07-26T13:42:35.000Z,21.98
2022-07-26T13:47:34.000Z,21.49
2022-07-26T13:52:35.000Z,22.16
2022-07-26T13:57:58.000Z,21.32
2022-07-26T14:02:35.000Z,21.36
2022-07-26T14:07:35.000Z,21.36
2022-07-26T14:12:35.000Z,24.24
2022-07-26T14:17:34.000Z,21.3
2022-07-26T14:22:34.000Z,21.21
2022-07-26T14:27:35.000Z,20.92
2022-07-26T14:32:35.000Z,21.72
2022-07-26T14:37:55.000Z,21.72
2022-07-26T14:47:35.000Z,20.31
2022-07-26T14:52:34.000Z,20.74
2022-07-26T14:57:34.000Z,20.61
2022-07-26T15:02:35.000Z,20
2022-07-26T15:07:34.000Z,20.56
2022-07-26T15:12:35.000Z,22.42
2022-07-26T15:17:34.000Z,22.91
2022-07-26T15:22:35.000Z,22.91
2022-07-26T15:27:34.000Z,22.81
2022-07-26T15:32:34.000Z,20.89
2022-07-26T15:37:35.000Z,21.96
2022-07-26T15:42:34.000Z,43.33
2022-07-26T15:48:04.000Z,25.4
2022-07-26T15:52:34.000Z,24.08
2022-07-26T15:57:34.000Z,48.66
2022-07-26T16:02:35.000Z,27.24
2022-07-26T16:07:35.000Z,27.24
2022-07-26T16:12:35.000Z,25.79
2022-07-26T16:17:35.000Z,25.11
2022-07-26T16:22:35.000Z,21.88
2022-07-26T16:27:35.000Z,24.02
2022-07-26T16:32:35.000Z,21.64
2022-07-26T16:37:34.000Z,21.75
2022-07-26T16:42:34.000Z,20.23
2022-07-26T16:47:34.000Z,22.3
2022-07-26T16:52:34.000Z,21.47
2022-07-26T16:57:35.000Z,21.47
2022-07-26T17:02:35.000Z,20.6
2022-07-26T17:07:36.000Z,23.75
2022-07-26T17:12:34.000Z,22.71
2022-07-26T17:17:35.000Z,26.32
2022-07-26T17:22:34.000Z,23.27
2022-07-26T17:27:34.000Z,24.66
2022-07-26T17:32:35.000Z,22.14
2022-07-26T17:37:35.000Z,23.31
2022-07-26T17:42:34.000Z,23.31
2022-07-26T17:47:40.000Z,23.9
2022-07-26T17:52:35.000Z,24.49
2022-07-26T17:57:35.000Z,24.15
2022-07-26T18:02:35.000Z,21.61
2022-07-26T18:07:35.000Z,22.89
2022-07-26T18:12:34.000Z,21.52
2022-07-26T18:17:35.000Z,21.68
2022-07-26T18:22:34.000Z,21.68
2022-07-26T18:27:37.000Z,21.12
2022-07-26T18:32:34.000Z,21.25
2022-07-26T18:42:34.000Z,22.04
2022-07-26T18:52:42.000Z,23.52
2022-07-26T18:57:34.000Z,23.52
2022-07-26T19:02:35.000Z,23.16
2022-07-26T19:07:35.000Z,23.63
2022-07-26T19:12:35.000Z,22.17
2022-07-26T19:17:34.000Z,23.43
2022-07-26T19:22:34.000Z,27.8
2022-07-26T19:27:35.000Z,26.49
2022-07-26T19:32:41.000Z,26.49
2022-07-26T19:37:35.000Z,23.29
2022-07-26T19:42:35.000Z,23.08
2022-07-26T19:47:35.000Z,23.26
2022-07-26T19:52:35.000Z,23.47
2022-07-26T19:57:34.000Z,23.83
2022-07-26T20:02:34.000Z,23.56
2022-07-26T20:07:34.000Z,23.34
2022-07-26T20:12:34.000Z,23.34
2022-07-26T20:17:35.000Z,22.96
2022-07-26T20:27:35.000Z,22.81
2022-07-26T20:32:34.000Z,22.98
2022-07-26T20:37:34.000Z,23.15
2022-07-26T20:42:34.000Z,24.41
2022-07-26T20:47:34.000Z,24.41
2022-07-26T20:52:35.000Z,23.26
2022-07-26T21:02:35.000Z,26.65
2022-07-26T21:08:07.000Z,27.04
2022-07-26T21:12:35.000Z,27.17
2022-07-26T21:17:44.000Z,27.29
2022-07-26T21:22:35.000Z,26.3
2022-07-26T21:27:35.000Z,26.3
2022-07-26T21:32:41.000Z,26.01
2022-07-26T21:37:34.000Z,25.18
2022-07-26T21:42:36.000Z,24.64
2022-07-26T21:47:35.000Z,24.88
2022-07-26T21:52:35.000Z,26.23
2022-07-26T21:57:35.000Z,26.34
2022-07-26T22:02:35.000Z,27.18
2022-07-26T22:07:35.000Z,27.18
2022-07-26T22:12:34.000Z,27.68
2022-07-26T22:17:35.000Z,29.05
2022-07-26T22:22:35.000Z,26.24
2022-07-26T22:27:34.000Z,23.73
2022-07-26T22:32:34.000Z,22.96
2022-07-26T22:42:34.000Z,23.28
2022-07-26T22:47:34.000Z,23.28
2022-07-26T22:52:34.000Z,24.99
2022-07-26T22:57:35.000Z,27.78
2022-07-26T23:02:34.000Z,26.71
2022-07-26T23:07:34.000Z,26.61
2022-07-26T23:12:35.000Z,23.66
2022-07-26T23:17:35.000Z,22.82
2022-07-26T23:22:35.000Z,22.82
2022-07-26T23:27:34.000Z,22.83
2022-07-26T23:32:35.000Z,23.04
2022-07-26T23:37:35.000Z,22.77
2022-07-26T23:47:34.000Z,23.63
2022-07-26T23:52:35.000Z,25.99
2022-07-26T23:57:34.000Z,25.99
